createdAt,value
2018-02-25T00:00:49.395Z,1030.56
2018-02-25T00:01:49.671Z,1030.54
2018-02-25T00:02:49.400Z,1030.58
2018-02-25T00:03:49.487Z,1030.56
2018-02-25T00:04:49.543Z,1030.62
2018-02-25T00:05:49.573Z,1030.54
2018-02-25T00:06:49.613Z,1030.58
2018-02-25T00:07:49.608Z,1030.5
2018-02-25T00:08:49.707Z,1030.54
2018-02-25T00:09:49.674Z,1030.54
2018-02-25T00:10:49.897Z,1030.54
2018-02-25T00:11:49.654Z,1030.6
2018-02-25T00:12:50.200Z,1030.48
2018-02-25T00:13:50.169Z,1030.53
2018-02-25T00:14:50.133Z,1030.49
2018-02-25T00:15:50.183Z,1030.48
2018-02-25T00:16:50.493Z,1030.46
2018-02-25T00:17:50.187Z,1030.47
2018-02-25T00:18:50.218Z,1030.44
2018-02-25T00:19:51.208Z,1030.46
2018-02-25T00:20:50.974Z,1030.51
2018-02-25T00:21:51.731Z,1030.5
2018-02-25T00:22:51.610Z,1030.49
2018-02-25T00:23:52.067Z,1030.53
2018-02-25T00:24:52.124Z,1030.5
2018-02-25T00:25:52.082Z,1030.52
2018-02-25T00:26:52.270Z,1030.53
2018-02-25T00:27:52.468Z,1030.44
2018-02-25T00:28:52.495Z,1030.48
2018-02-25T00:29:52.494Z,1030.45
2018-02-25T00:30:53.028Z,1030.45
2018-02-25T00:31:52.888Z,1030.48
2018-02-25T00:32:53.041Z,1030.44
2018-02-25T00:33:52.962Z,1030.49
2018-02-25T00:34:53.097Z,1030.52
2018-02-25T00:35:53.122Z,1030.45
2018-02-25T00:36:52.865Z,1030.5
2018-02-25T00:37:52.844Z,1030.52
2018-02-25T00:38:53.087Z,1030.47
2018-02-25T00:39:53.335Z,1030.5
2018-02-25T00:40:53.104Z,1030.47
2018-02-25T00:41:53.203Z,1030.45
2018-02-25T00:42:53.416Z,1030.49
2018-02-25T00:43:53.453Z,1030.49
2018-02-25T00:44:53.445Z,1030.53
2018-02-25T00:45:53.448Z,1030.51
2018-02-25T00:46:53.492Z,1030.49
2018-02-25T00:47:53.482Z,1030.48
2018-02-25T00:48:53.370Z,1030.45
2018-02-25T00:49:53.536Z,1030.44
2018-02-25T00:50:53.251Z,1030.45
2018-02-25T00:51:53.566Z,1030.41
2018-02-25T00:52:53.291Z,1030.42
2018-02-25T00:53:53.287Z,1030.46
2018-02-25T00:54:53.304Z,1030.44
2018-02-25T00:55:53.694Z,1030.41
2018-02-25T00:56:53.841Z,1030.45
2018-02-25T00:57:54.066Z,1030.44
2018-02-25T00:58:53.727Z,1030.42
2018-02-25T00:59:53.753Z,1030.38
2018-02-25T01:00:53.800Z,1030.38
2018-02-25T01:01:53.820Z,1030.37
2018-02-25T01:02:53.823Z,1030.38
2018-02-25T01:03:54.341Z,1030.42
2018-02-25T01:04:54.375Z,1030.38
2018-02-25T01:05:54.709Z,1030.36
2018-02-25T01:06:54.405Z,1030.41
2018-02-25T01:07:54.419Z,1030.44
2018-02-25T01:08:54.445Z,1030.38
2018-02-25T01:09:54.465Z,1030.44
2018-02-25T01:10:54.509Z,1030.41
2018-02-25T01:11:54.961Z,1030.41
2018-02-25T01:12:54.981Z,1030.39
2018-02-25T01:13:55.005Z,1030.36
2018-02-25T01:14:55.019Z,1030.4
2018-02-25T01:15:55.123Z,1030.39
2018-02-25T01:16:55.125Z,1030.38
2018-02-25T01:17:55.505Z,1030.33
2018-02-25T01:18:55.193Z,1030.34
2018-02-25T01:19:55.217Z,1030.33
2018-02-25T01:20:55.215Z,1030.34
2018-02-25T01:21:55.224Z,1030.31
2018-02-25T01:22:55.296Z,1030.25
2018-02-25T01:23:55.240Z,1030.28
2018-02-25T01:24:55.262Z,1030.3
2018-02-25T01:25:55.276Z,1030.3
2018-02-25T01:26:55.747Z,1030.26
2018-02-25T01:27:55.691Z,1030.25
2018-02-25T01:28:55.703Z,1030.28
2018-02-25T01:29:55.731Z,1030.27
2018-02-25T01:30:55.786Z,1030.29
2018-02-25T01:31:55.909Z,1030.27
2018-02-25T01:32:55.889Z,1030.26
2018-02-25T01:33:55.796Z,1030.31
2018-02-25T01:34:55.805Z,1030.34
2018-02-25T01:35:55.881Z,1030.33
2018-02-25T01:36:55.825Z,1030.31
2018-02-25T01:37:55.839Z,1030.26
2018-02-25T01:38:55.882Z,1030.26
2018-02-25T01:39:56.157Z,1030.25
2018-02-25T01:40:56.021Z,1030.31
2018-02-25T01:41:56.784Z,1030.28
2018-02-25T01:42:56.449Z,1030.3
2018-02-25T01:43:56.645Z,1030.26
2018-02-25T01:44:56.398Z,1030.25
2018-02-25T01:45:56.414Z,1030.21
2018-02-25T01:46:56.427Z,1030.21
2018-02-25T01:47:56.801Z,1030.23
2018-02-25T01:48:56.955Z,1030.26
2018-02-25T01:49:57.250Z,1030.24
2018-02-25T01:50:57.277Z,1030.23
2018-02-25T01:51:57.589Z,1030.22
2018-02-25T01:52:57.568Z,1030.24
2018-02-25T01:53:57.585Z,1030.22
2018-02-25T01:54:57.734Z,1030.22
2018-02-25T01:55:57.956Z,1030.25
2018-02-25T01:56:58.067Z,1030.25
2018-02-25T01:57:58.232Z,1030.22
2018-02-25T01:58:57.974Z,1030.22
2018-02-25T01:59:57.993Z,1030.21
2018-02-25T02:00:58.615Z,1030.23
2018-02-25T02:01:58.604Z,1030.22
2018-02-25T02:02:58.902Z,1030.27
2018-02-25T02:03:58.622Z,1030.24
2018-02-25T02:04:58.602Z,1030.27
2018-02-25T02:05:58.689Z,1030.28
2018-02-25T02:06:58.841Z,1030.22
2018-02-25T02:07:58.860Z,1030.24
2018-02-25T02:08:59.057Z,1030.24
2018-02-25T02:09:59.080Z,1030.25
2018-02-25T02:10:59.310Z,1030.22
2018-02-25T02:11:59.101Z,1030.21
2018-02-25T02:12:59.112Z,1030.22
2018-02-25T02:13:59.323Z,1030.27
2018-02-25T02:14:59.341Z,1030.25
2018-02-25T02:15:59.568Z,1030.25
2018-02-25T02:16:59.810Z,1030.27
2018-02-25T02:18:00.124Z,1030.24
2018-02-25T02:18:59.826Z,1030.24
2018-02-25T02:19:59.983Z,1030.27
2018-02-25T02:20:59.973Z,1030.3
2018-02-25T02:21:59.993Z,1030.24
2018-02-25T02:23:00.333Z,1030.23
2018-02-25T02:24:00.530Z,1030.26
2018-02-25T02:25:00.499Z,1030.24
2018-02-25T02:26:00.506Z,1030.25
2018-02-25T02:27:00.722Z,1030.24
2018-02-25T02:28:00.956Z,1030.3
2018-02-25T02:29:01.162Z,1030.27
2018-02-25T02:30:01.174Z,1030.25
2018-02-25T02:31:01.321Z,1030.28
2018-02-25T02:32:01.626Z,1030.28
2018-02-25T02:33:02.042Z,1030.3
2018-02-25T02:34:02.477Z,1030.32
2018-02-25T02:35:02.493Z,1030.3
2018-02-25T02:36:02.531Z,1030.32
2018-02-25T02:37:02.634Z,1030.34
2018-02-25T02:38:03.038Z,1030.28
2018-02-25T02:39:03.144Z,1030.3
2018-02-25T02:40:03.153Z,1030.36
2018-02-25T02:41:03.168Z,1030.31
2018-02-25T02:42:03.442Z,1030.29
2018-02-25T02:43:03.709Z,1030.31
2018-02-25T02:44:03.719Z,1030.32
2018-02-25T02:45:03.739Z,1030.29
2018-02-25T02:46:03.750Z,1030.35
2018-02-25T02:47:03.765Z,1030.32
2018-02-25T02:48:03.778Z,1030.37
2018-02-25T02:49:03.801Z,1030.3
2018-02-25T02:50:04.270Z,1030.24
2018-02-25T02:51:04.656Z,1030.3
2018-02-25T02:52:04.668Z,1030.26
2018-02-25T02:53:04.920Z,1030.28
2018-02-25T02:54:04.871Z,1030.26
2018-02-25T02:55:04.960Z,1030.32
2018-02-25T02:56:04.921Z,1030.24
2018-02-25T02:57:04.923Z,1030.23
2018-02-25T02:58:04.946Z,1030.27
2018-02-25T02:59:04.951Z,1030.27
2018-02-25T03:00:11.874Z,1030.3
2018-02-25T03:01:11.721Z,1030.36
2018-02-25T03:02:11.719Z,1030.34
2018-02-25T03:03:11.780Z,1030.35
2018-02-25T03:04:11.865Z,1030.37
2018-02-25T03:05:11.789Z,1030.34
2018-02-25T03:06:11.786Z,1030.38
2018-02-25T03:07:11.803Z,1030.3
2018-02-25T03:08:12.481Z,1030.33
2018-02-25T03:09:12.354Z,1030.31
2018-02-25T03:10:12.375Z,1030.29
2018-02-25T03:11:12.373Z,1030.34
2018-02-25T03:12:12.390Z,1030.35
2018-02-25T03:13:12.511Z,1030.3
2018-02-25T03:14:12.917Z,1030.34
2018-02-25T03:15:13.087Z,1030.35
2018-02-25T03:16:13.078Z,1030.34
2018-02-25T03:17:13.100Z,1030.34
2018-02-25T03:18:13.219Z,1030.33
2018-02-25T03:19:13.587Z,1030.34
2018-02-25T03:20:13.699Z,1030.32
2018-02-25T03:21:13.715Z,1030.31
2018-02-25T03:22:13.799Z,1030.31
2018-02-25T03:23:13.738Z,1030.29
2018-02-25T03:24:13.763Z,1030.25
2018-02-25T03:25:14.179Z,1030.27
2018-02-25T03:26:14.200Z,1030.31
2018-02-25T03:27:14.199Z,1030.27
2018-02-25T03:28:14.385Z,1030.35
2018-02-25T03:29:14.635Z,1030.32
2018-02-25T03:30:14.651Z,1030.33
2018-02-25T03:31:14.846Z,1030.3
2018-02-25T03:32:14.975Z,1030.3
2018-02-25T03:33:15.108Z,1030.31
2018-02-25T03:34:15.242Z,1030.27
2018-02-25T03:35:15.502Z,1030.32
2018-02-25T03:36:15.509Z,1030.3
2018-02-25T03:37:15.913Z,1030.35
2018-02-25T03:38:16.057Z,1030.31
2018-02-25T03:39:16.068Z,1030.32
2018-02-25T03:40:16.092Z,1030.35
2018-02-25T03:41:16.470Z,1030.3
2018-02-25T03:42:16.482Z,1030.28
2018-02-25T03:43:16.595Z,1030.34
2018-02-25T03:44:16.859Z,1030.3
2018-02-25T03:45:16.812Z,1030.28
2018-02-25T03:46:17.183Z,1030.32
2018-02-25T03:47:17.635Z,1030.27
2018-02-25T03:48:17.650Z,1030.3
2018-02-25T03:49:17.778Z,1030.26
2018-02-25T03:50:17.792Z,1030.27
2018-02-25T03:51:18.256Z,1030.27
2018-02-25T03:52:18.369Z,1030.25
2018-02-25T03:53:18.400Z,1030.23
2018-02-25T03:54:18.402Z,1030.26
2018-02-25T03:55:18.421Z,1030.25
2018-02-25T03:56:19.112Z,1030.26
2018-02-25T03:57:19.081Z,1030.22
2018-02-25T03:58:19.095Z,1030.27
2018-02-25T03:59:19.380Z,1030.26
2018-02-25T04:00:35.841Z,1030.26
2018-02-25T04:01:35.858Z,1030.24
2018-02-25T04:02:35.834Z,1030.22
2018-02-25T04:03:35.842Z,1030.17
2018-02-25T04:04:35.863Z,1030.23
2018-02-25T04:05:36.068Z,1030.2
2018-02-25T04:06:36.105Z,1030.16
2018-02-25T04:07:36.100Z,1030.2
2018-02-25T04:08:36.480Z,1030.21
2018-02-25T04:09:36.495Z,1030.19
2018-02-25T04:10:37.006Z,1030.21
2018-02-25T04:11:37.169Z,1030.16
2018-02-25T04:12:37.544Z,1030.17
2018-02-25T04:13:37.561Z,1030.17
2018-02-25T04:14:38.079Z,1030.13
2018-02-25T04:15:37.697Z,1030.22
2018-02-25T04:16:37.712Z,1030.22
2018-02-25T04:17:37.780Z,1030.22
2018-02-25T04:18:37.796Z,1030.23
2018-02-25T04:19:37.810Z,1030.24
2018-02-25T04:20:37.831Z,1030.22
2018-02-25T04:21:37.849Z,1030.22
2018-02-25T04:22:37.959Z,1030.21
2018-02-25T04:23:38.131Z,1030.25
2018-02-25T04:24:38.294Z,1030.24
2018-02-25T04:25:38.782Z,1030.25
2018-02-25T04:26:38.512Z,1030.23
2018-02-25T04:27:38.908Z,1030.25
2018-02-25T04:28:38.953Z,1030.25
2018-02-25T04:29:39.413Z,1030.25
2018-02-25T04:30:39.444Z,1030.2
2018-02-25T04:31:39.660Z,1030.22
2018-02-25T04:32:39.778Z,1030.23
2018-02-25T04:33:39.798Z,1030.24
2018-02-25T04:34:39.836Z,1030.24
2018-02-25T04:35:39.864Z,1030.31
2018-02-25T04:36:40.270Z,1030.26
2018-02-25T04:37:40.743Z,1030.27
2018-02-25T04:38:40.746Z,1030.23
2018-02-25T04:39:40.943Z,1030.33
2018-02-25T04:40:40.954Z,1030.24
2018-02-25T04:41:41.366Z,1030.25
2018-02-25T04:42:41.384Z,1030.29
2018-02-25T04:43:41.422Z,1030.27
2018-02-25T04:44:41.413Z,1030.24
2018-02-25T04:45:41.668Z,1030.3
2018-02-25T04:46:41.766Z,1030.23
2018-02-25T04:47:41.663Z,1030.28
2018-02-25T04:48:42.056Z,1030.29
2018-02-25T04:49:42.082Z,1030.27
2018-02-25T04:50:42.165Z,1030.25
2018-02-25T04:51:42.426Z,1030.26
2018-02-25T04:52:42.115Z,1030.25
2018-02-25T04:53:42.130Z,1030.2
2018-02-25T04:54:42.574Z,1030.25
2018-02-25T04:55:42.562Z,1030.24
2018-02-25T04:56:42.984Z,1030.24
2018-02-25T04:57:42.994Z,1030.24
2018-02-25T04:58:43.152Z,1030.23
2018-02-25T04:59:43.159Z,1030.23
2018-02-25T05:00:43.193Z,1030.26
2018-02-25T05:01:43.229Z,1030.24
2018-02-25T05:02:43.208Z,1030.23
2018-02-25T05:03:43.368Z,1030.22
2018-02-25T05:04:43.376Z,1030.27
2018-02-25T05:05:43.414Z,1030.31
2018-02-25T05:06:43.414Z,1030.25
2018-02-25T05:07:43.409Z,1030.23
2018-02-25T05:08:43.442Z,1030.25
2018-02-25T05:09:43.481Z,1030.23
2018-02-25T05:10:43.804Z,1030.23
2018-02-25T05:11:43.844Z,1030.2
2018-02-25T05:12:44.059Z,1030.22
2018-02-25T05:13:44.100Z,1030.25
2018-02-25T05:14:44.104Z,1030.23
2018-02-25T05:15:44.094Z,1030.23
2018-02-25T05:16:44.402Z,1030.25
2018-02-25T05:17:44.394Z,1030.24
2018-02-25T05:18:44.438Z,1030.23
2018-02-25T05:19:44.474Z,1030.26
2018-02-25T05:20:44.653Z,1030.32
2018-02-25T05:21:44.708Z,1030.24
2018-02-25T05:22:44.653Z,1030.29
2018-02-25T05:23:45.088Z,1030.27
2018-02-25T05:24:45.476Z,1030.22
2018-02-25T05:25:45.865Z,1030.22
2018-02-25T05:26:46.253Z,1030.22
2018-02-25T05:27:46.630Z,1030.2
2018-02-25T05:28:46.653Z,1030.26
2018-02-25T05:29:46.668Z,1030.3
2018-02-25T05:30:46.708Z,1030.22
2018-02-25T05:31:46.702Z,1030.23
2018-02-25T05:32:46.710Z,1030.26
2018-02-25T05:33:47.141Z,1030.27
2018-02-25T05:34:47.315Z,1030.26
2018-02-25T05:35:47.795Z,1030.26
2018-02-25T05:36:47.810Z,1030.23
2018-02-25T05:37:47.827Z,1030.22
2018-02-25T05:38:47.871Z,1030.21
2018-02-25T05:39:47.857Z,1030.24
2018-02-25T05:40:48.259Z,1030.25
2018-02-25T05:41:48.273Z,1030.25
2018-02-25T05:42:48.658Z,1030.24
2018-02-25T05:43:48.801Z,1030.26
2018-02-25T05:44:48.820Z,1030.29
2018-02-25T05:45:48.808Z,1030.3
2018-02-25T05:46:48.822Z,1030.27
2018-02-25T05:47:48.850Z,1030.32
2018-02-25T05:48:48.869Z,1030.34
2018-02-25T05:49:48.871Z,1030.31
2018-02-25T05:50:49.312Z,1030.35
2018-02-25T05:51:49.411Z,1030.39
2018-02-25T05:52:49.559Z,1030.34
2018-02-25T05:53:49.693Z,1030.4
2018-02-25T05:54:50.044Z,1030.37
2018-02-25T05:55:50.029Z,1030.34
2018-02-25T05:56:50.057Z,1030.38
2018-02-25T05:57:50.455Z,1030.42
2018-02-25T05:58:50.820Z,1030.36
2018-02-25T05:59:50.862Z,1030.39
2018-02-25T06:00:50.862Z,1030.35
2018-02-25T06:01:50.927Z,1030.33
2018-02-25T06:02:50.887Z,1030.37
2018-02-25T06:03:50.957Z,1030.36
2018-02-25T06:04:51.356Z,1030.4
2018-02-25T06:05:51.514Z,1030.43
2018-02-25T06:06:51.614Z,1030.43
2018-02-25T06:07:51.574Z,1030.44
2018-02-25T06:08:51.676Z,1030.39
2018-02-25T06:09:51.635Z,1030.46
2018-02-25T06:10:51.688Z,1030.48
2018-02-25T06:11:52.306Z,1030.47
2018-02-25T06:12:52.256Z,1030.47
2018-02-25T06:13:52.272Z,1030.46
2018-02-25T06:14:52.298Z,1030.48
2018-02-25T06:15:52.294Z,1030.5
2018-02-25T06:16:52.411Z,1030.51
2018-02-25T06:17:52.341Z,1030.5
2018-02-25T06:18:52.384Z,1030.51
2018-02-25T06:19:52.401Z,1030.48
2018-02-25T06:20:52.528Z,1030.55
2018-02-25T06:21:52.902Z,1030.49
2018-02-25T06:22:52.902Z,1030.47
2018-02-25T06:23:52.914Z,1030.47
2018-02-25T06:24:53.069Z,1030.46
2018-02-25T06:25:53.092Z,1030.55
2018-02-25T06:26:53.112Z,1030.48
2018-02-25T06:27:53.489Z,1030.48
2018-02-25T06:28:53.605Z,1030.49
2018-02-25T06:29:53.613Z,1030.55
2018-02-25T06:30:53.685Z,1030.51
2018-02-25T06:31:53.906Z,1030.53
2018-02-25T06:32:53.965Z,1030.49
2018-02-25T06:33:53.910Z,1030.52
2018-02-25T06:34:54.002Z,1030.55
2018-02-25T06:35:54.093Z,1030.6
2018-02-25T06:36:54.108Z,1030.53
2018-02-25T06:37:54.145Z,1030.52
2018-02-25T06:38:54.181Z,1030.54
2018-02-25T06:39:54.185Z,1030.51
2018-02-25T06:40:54.195Z,1030.53
2018-02-25T06:41:54.285Z,1030.55
2018-02-25T06:42:54.599Z,1030.56
2018-02-25T06:43:54.740Z,1030.5
2018-02-25T06:44:54.762Z,1030.49
2018-02-25T06:45:54.841Z,1030.51
2018-02-25T06:46:54.663Z,1030.54
2018-02-25T06:47:54.741Z,1030.51
2018-02-25T06:48:54.690Z,1030.54
2018-02-25T06:49:55.001Z,1030.51
2018-02-25T06:50:54.992Z,1030.53
2018-02-25T06:51:55.278Z,1030.52
2018-02-25T06:52:55.269Z,1030.56
2018-02-25T06:53:55.671Z,1030.59
2018-02-25T06:54:55.688Z,1030.58
2018-02-25T06:55:55.723Z,1030.57
2018-02-25T06:56:56.032Z,1030.57
2018-02-25T06:57:55.806Z,1030.56
2018-02-25T06:58:55.770Z,1030.6
2018-02-25T06:59:55.763Z,1030.6
2018-02-25T07:00:55.829Z,1030.54
2018-02-25T07:01:55.872Z,1030.57
2018-02-25T07:02:55.818Z,1030.57
2018-02-25T07:03:56.006Z,1030.56
2018-02-25T07:04:55.852Z,1030.59
2018-02-25T07:05:56.265Z,1030.55
2018-02-25T07:06:56.266Z,1030.54
2018-02-25T07:07:56.679Z,1030.63
2018-02-25T07:08:56.653Z,1030.63
2018-02-25T07:09:56.681Z,1030.62
2018-02-25T07:10:56.696Z,1030.62
2018-02-25T07:11:56.972Z,1030.62
2018-02-25T07:12:56.737Z,1030.62
2018-02-25T07:13:56.732Z,1030.6
2018-02-25T07:14:56.755Z,1030.64
2018-02-25T07:15:56.800Z,1030.63
2018-02-25T07:16:56.829Z,1030.65
2018-02-25T07:17:56.822Z,1030.58
2018-02-25T07:18:57.192Z,1030.67
2018-02-25T07:19:57.311Z,1030.68
2018-02-25T07:20:57.310Z,1030.62
2018-02-25T07:21:57.349Z,1030.59
2018-02-25T07:22:57.654Z,1030.66
2018-02-25T07:23:57.402Z,1030.59
2018-02-25T07:24:57.579Z,1030.63
2018-02-25T07:25:57.793Z,1030.66
2018-02-25T07:26:57.607Z,1030.67
2018-02-25T07:27:57.681Z,1030.66
2018-02-25T07:28:57.651Z,1030.67
2018-02-25T07:29:57.708Z,1030.66
2018-02-25T07:30:57.940Z,1030.69
2018-02-25T07:31:57.822Z,1030.66
2018-02-25T07:32:57.759Z,1030.63
2018-02-25T07:33:58.331Z,1030.65
2018-02-25T07:34:58.589Z,1030.63
2018-02-25T07:35:58.620Z,1030.64
2018-02-25T07:36:58.651Z,1030.63
2018-02-25T07:37:58.441Z,1030.64
2018-02-25T07:38:58.818Z,1030.66
2018-02-25T07:39:58.805Z,1030.63
2018-02-25T07:40:58.816Z,1030.65
2018-02-25T07:41:58.908Z,1030.69
2018-02-25T07:42:59.072Z,1030.62
2018-02-25T07:43:59.023Z,1030.7
2018-02-25T07:44:59.708Z,1030.65
2018-02-25T07:45:59.911Z,1030.68
2018-02-25T07:46:59.919Z,1030.73
2018-02-25T07:47:59.621Z,1030.67
2018-02-25T07:48:59.662Z,1030.64
2018-02-25T07:49:59.680Z,1030.78
2018-02-25T07:50:59.744Z,1030.8
2018-02-25T07:51:59.780Z,1030.82
2018-02-25T07:53:00.002Z,1030.82
2018-02-25T07:53:59.920Z,1030.9
2018-02-25T07:54:59.916Z,1030.93
2018-02-25T07:56:00.176Z,1030.92
2018-02-25T07:56:59.964Z,1030.98
2018-02-25T07:57:59.977Z,1030.99
2018-02-25T07:58:59.990Z,1030.88
2018-02-25T08:00:00.197Z,1030.83
2018-02-25T08:01:00.034Z,1030.83
2018-02-25T08:02:00.267Z,1030.83
2018-02-25T08:03:00.266Z,1030.81
2018-02-25T08:04:00.459Z,1030.82
2018-02-25T08:05:00.865Z,1030.79
2018-02-25T08:06:00.887Z,1030.77
2018-02-25T08:07:01.092Z,1030.78
2018-02-25T08:08:01.385Z,1030.78
2018-02-25T08:09:01.481Z,1030.92
2018-02-25T08:10:01.418Z,1030.96
2018-02-25T08:11:01.631Z,1031.1
2018-02-25T08:12:01.652Z,1031.05
2018-02-25T08:13:01.667Z,1030.97
2018-02-25T08:14:01.855Z,1031
2018-02-25T08:15:02.017Z,1031.09
2018-02-25T08:16:02.008Z,1031.08
2018-02-25T08:17:02.023Z,1031.07
2018-02-25T08:18:02.293Z,1030.98
2018-02-25T08:19:02.683Z,1030.89
2018-02-25T08:20:02.694Z,1030.94
2018-02-25T08:21:02.776Z,1030.93
2018-02-25T08:22:02.736Z,1030.94
2018-02-25T08:23:03.145Z,1030.92
2018-02-25T08:24:03.155Z,1030.88
2018-02-25T08:25:03.152Z,1030.85
2018-02-25T08:26:03.184Z,1030.95
2018-02-25T08:27:03.203Z,1030.93
2018-02-25T08:28:03.226Z,1030.94
2018-02-25T08:29:03.244Z,1030.98
2018-02-25T08:30:03.688Z,1030.99
2018-02-25T08:31:03.929Z,1031.01
2018-02-25T08:32:04.529Z,1031.01
2018-02-25T08:33:04.569Z,1031.01
2018-02-25T08:34:04.554Z,1031.01
2018-02-25T08:35:04.789Z,1030.91
2018-02-25T08:36:04.758Z,1030.95
2018-02-25T08:37:04.960Z,1030.97
2018-02-25T08:38:05.024Z,1031.06
2018-02-25T08:39:05.024Z,1031.03
2018-02-25T08:40:05.106Z,1031.05
2018-02-25T08:41:05.076Z,1031.06
2018-02-25T08:42:05.245Z,1031
2018-02-25T08:43:05.270Z,1030.89
2018-02-25T08:44:05.402Z,1030.89
2018-02-25T08:45:05.437Z,1030.85
2018-02-25T08:46:05.441Z,1030.96
2018-02-25T08:47:05.490Z,1031.09
2018-02-25T08:48:05.545Z,1031.08
2018-02-25T08:49:06.530Z,1031.03
2018-02-25T08:50:06.181Z,1031.08
2018-02-25T08:51:06.166Z,1031.17
2018-02-25T08:52:06.496Z,1031.2
2018-02-25T08:53:07.550Z,1031.19
2018-02-25T08:54:07.273Z,1031.18
2018-02-25T08:55:07.272Z,1031.23
2018-02-25T08:56:07.291Z,1031.24
2018-02-25T08:57:07.574Z,1031.15
2018-02-25T08:58:07.361Z,1031.14
2018-02-25T08:59:07.353Z,1031.11
2018-02-25T09:00:39.621Z,1031.1
2018-02-25T09:01:39.648Z,1031.09
2018-02-25T09:02:39.623Z,1031.17
2018-02-25T09:03:40.236Z,1031.25
2018-02-25T09:04:40.266Z,1031.27
2018-02-25T09:05:40.578Z,1031.23
2018-02-25T09:06:40.338Z,1031.28
2018-02-25T09:07:40.350Z,1031.32
2018-02-25T09:08:40.762Z,1031.28
2018-02-25T09:09:40.776Z,1031.36
2018-02-25T09:10:41.315Z,1031.4
2018-02-25T09:11:41.307Z,1031.31
2018-02-25T09:12:41.373Z,1031.27
2018-02-25T09:13:41.262Z,1031.39
2018-02-25T09:14:41.801Z,1031.35
2018-02-25T09:15:41.696Z,1031.36
2018-02-25T09:16:41.875Z,1031.35
2018-02-25T09:17:41.884Z,1031.11
2018-02-25T09:18:41.976Z,1030.95
2018-02-25T09:19:42.037Z,1030.84
2018-02-25T09:20:42.429Z,1030.74
2018-02-25T09:21:42.800Z,1030.81
2018-02-25T09:22:43.177Z,1030.83
2018-02-25T09:23:43.303Z,1030.85
2018-02-25T09:24:43.483Z,1030.73
2018-02-25T09:25:43.607Z,1030.7
2018-02-25T09:26:43.636Z,1030.71
2018-02-25T09:27:43.669Z,1030.7
2018-02-25T09:28:43.861Z,1030.68
2018-02-25T09:29:44.289Z,1030.69
2018-02-25T09:30:44.325Z,1030.67
2018-02-25T09:31:44.349Z,1030.63
2018-02-25T09:32:44.379Z,1030.68
2018-02-25T09:33:44.466Z,1030.6
2018-02-25T09:34:44.478Z,1030.61
2018-02-25T09:35:44.543Z,1030.64
2018-02-25T09:36:44.509Z,1030.57
2018-02-25T09:37:44.568Z,1030.6
2018-02-25T09:38:44.577Z,1030.55
2018-02-25T09:39:45.025Z,1030.56
2018-02-25T09:40:45.491Z,1030.56
2018-02-25T09:41:45.666Z,1030.55
2018-02-25T09:42:45.694Z,1030.49
2018-02-25T09:43:45.897Z,1030.47
2018-02-25T09:44:46.508Z,1030.44
2018-02-25T09:45:46.472Z,1030.43
2018-02-25T09:46:46.792Z,1030.41
2018-02-25T09:47:47.028Z,1030.43
2018-02-25T09:48:46.563Z,1030.34
2018-02-25T09:49:46.589Z,1030.37
2018-02-25T09:50:46.623Z,1030.43
2018-02-25T09:51:46.655Z,1030.42
2018-02-25T09:52:46.735Z,1030.48
2018-02-25T09:53:46.762Z,1030.41
2018-02-25T09:54:46.753Z,1030.41
2018-02-25T09:55:46.782Z,1030.4
2018-02-25T09:56:46.816Z,1030.29
2018-02-25T09:57:46.981Z,1030.36
2018-02-25T09:58:47.009Z,1030.33
2018-02-25T09:59:47.033Z,1030.37
2018-02-25T10:00:47.127Z,1030.28
2018-02-25T10:01:47.152Z,1030.32
2018-02-25T10:02:47.465Z,1030.3
2018-02-25T10:03:47.160Z,1030.31
2018-02-25T10:04:47.346Z,1030.31
2018-02-25T10:05:47.436Z,1030.27
2018-02-25T10:06:47.433Z,1030.3
2018-02-25T10:07:47.433Z,1030.27
2018-02-25T10:08:47.464Z,1030.26
2018-02-25T10:09:47.529Z,1030.26
2018-02-25T10:10:47.571Z,1030.2
2018-02-25T10:11:47.566Z,1030.22
2018-02-25T10:12:47.631Z,1030.19
2018-02-25T10:13:47.689Z,1030.23
2018-02-25T10:14:47.656Z,1030.19
2018-02-25T10:15:47.953Z,1030.2
2018-02-25T10:16:47.717Z,1030.16
2018-02-25T10:17:47.740Z,1030.13
2018-02-25T10:18:47.923Z,1030.13
2018-02-25T10:19:47.949Z,1030.14
2018-02-25T10:20:47.972Z,1030.18
2018-02-25T10:21:47.996Z,1030.16
2018-02-25T10:22:48.161Z,1030.18
2018-02-25T10:23:48.193Z,1030.16
2018-02-25T10:24:48.635Z,1030.16
2018-02-25T10:25:48.659Z,1030.09
2018-02-25T10:26:48.810Z,1030.1
2018-02-25T10:27:49.203Z,1030.15
2018-02-25T10:28:49.621Z,1030.13
2018-02-25T10:29:49.693Z,1030.15
2018-02-25T10:30:49.686Z,1030.1
2018-02-25T10:31:49.714Z,1030.09
2018-02-25T10:32:50.191Z,1030.06
2018-02-25T10:33:50.189Z,1029.97
2018-02-25T10:34:50.378Z,1030.07
2018-02-25T10:35:50.397Z,1029.97
2018-02-25T10:36:50.866Z,1029.99
2018-02-25T10:37:50.867Z,1030.03
2018-02-25T10:38:50.898Z,1030.1
2018-02-25T10:39:50.929Z,1030.12
2018-02-25T10:40:51.175Z,1030.08
2018-02-25T10:41:51.199Z,1030.1
2018-02-25T10:42:51.233Z,1030.06
2018-02-25T10:43:51.237Z,1030.11
2018-02-25T10:44:51.495Z,1030.15
2018-02-25T10:45:51.304Z,1030.28
2018-02-25T10:46:51.316Z,1030.39
2018-02-25T10:47:51.349Z,1030.6
2018-02-25T10:48:51.786Z,1030.71
2018-02-25T10:49:51.797Z,1030.84
2018-02-25T10:50:51.868Z,1031.05
2018-02-25T10:51:51.982Z,1031.32
2018-02-25T10:52:52.384Z,1031.5
2018-02-25T10:53:52.381Z,1031.58
2018-02-25T10:54:52.478Z,1031.46
2018-02-25T10:55:52.423Z,1031.21
2018-02-25T10:56:52.651Z,1031.26
2018-02-25T10:57:52.773Z,1031.31
2018-02-25T10:58:53.196Z,1031.54
2018-02-25T10:59:53.260Z,1031.72
2018-02-25T11:00:53.303Z,1031.29
2018-02-25T11:01:53.396Z,1030.07
2018-02-25T11:02:53.348Z,1029.56
2018-02-25T11:03:53.762Z,1029.47
2018-02-25T11:04:53.779Z,1029.48
2018-02-25T11:05:53.792Z,1029.5
2018-02-25T11:06:53.816Z,1029.47
2018-02-25T11:07:53.849Z,1029.48
2018-02-25T11:08:53.929Z,1029.48
2018-02-25T11:09:54.381Z,1029.44
2018-02-25T11:10:54.556Z,1029.43
2018-02-25T11:11:54.560Z,1029.46
2018-02-25T11:12:54.578Z,1029.43
2018-02-25T11:13:54.615Z,1029.46
2018-02-25T11:14:54.973Z,1029.34
2018-02-25T11:15:55.434Z,1029.38
2018-02-25T11:16:55.492Z,1029.4
2018-02-25T11:17:56.381Z,1029.31
2018-02-25T11:18:56.270Z,1029.31
2018-02-25T11:19:56.299Z,1029.35
2018-02-25T11:20:56.345Z,1029.29
2018-02-25T11:21:56.373Z,1029.23
2018-02-25T11:22:56.784Z,1029.2
2018-02-25T11:23:56.826Z,1029.19
2018-02-25T11:24:57.202Z,1029.11
2018-02-25T11:25:57.300Z,1029.09
2018-02-25T11:27:00.284Z,1029.04
2018-02-25T11:27:57.313Z,1029.07
2018-02-25T11:28:57.319Z,1029.05
2018-02-25T11:29:57.838Z,1029.02
2018-02-25T11:30:57.833Z,1029
2018-02-25T11:31:58.169Z,1029.03
2018-02-25T11:32:58.689Z,1029.02
2018-02-25T11:33:58.703Z,1028.98
2018-02-25T11:34:58.767Z,1028.95
2018-02-25T11:35:58.752Z,1028.91
2018-02-25T11:36:58.790Z,1028.94
2018-02-25T11:37:58.789Z,1028.98
2018-02-25T11:38:58.922Z,1028.94
2018-02-25T11:39:58.875Z,1028.94
2018-02-25T11:40:58.933Z,1029.03
2018-02-25T11:41:59.080Z,1029.02
2018-02-25T11:42:59.107Z,1029.02
2018-02-25T11:43:59.128Z,1028.94
2018-02-25T11:44:59.701Z,1028.98
2018-02-25T11:45:59.527Z,1028.99
2018-02-25T11:46:59.449Z,1028.98
2018-02-25T11:47:59.479Z,1028.93
2018-02-25T11:48:59.498Z,1028.98
2018-02-25T11:49:59.579Z,1028.96
2018-02-25T11:50:59.602Z,1028.99
2018-02-25T11:51:59.639Z,1028.89
2018-02-25T11:52:59.645Z,1028.88
2018-02-25T11:53:59.674Z,1028.9
2018-02-25T11:54:59.702Z,1028.89
2018-02-25T11:55:59.719Z,1028.93
2018-02-25T11:56:59.740Z,1028.85
2018-02-25T11:57:59.770Z,1028.83
2018-02-25T11:58:59.786Z,1028.82
2018-02-25T11:59:59.832Z,1028.81
2018-02-25T12:01:00.326Z,1028.93
2018-02-25T12:01:59.956Z,1028.84
2018-02-25T12:02:59.921Z,1028.84
2018-02-25T12:04:00.356Z,1028.84
2018-02-25T12:05:00.398Z,1028.84
2018-02-25T12:06:00.424Z,1028.87
2018-02-25T12:07:00.588Z,1028.89
2018-02-25T12:08:00.619Z,1028.84
2018-02-25T12:09:00.611Z,1028.81
2018-02-25T12:10:01.151Z,1028.83
2018-02-25T12:11:01.056Z,1028.82